sensor_id;sensor_type;location;lat;lon;timestamp;P1;durP1;ratioP1;P2;durP2;ratioP2
5890;SDS011;2971;52.420;7.080;2022-12-18T00:01:32;83.23;;;34.43;;
5890;SDS011;2971;52.420;7.080;2022-12-18T00:03:59;79.53;;;32.57;;
5890;SDS011;2971;52.420;7.080;2022-12-18T00:06:26;84.23;;;35.43;;
5890;SDS011;2971;52.420;7.080;2022-12-18T00:08:52;76.70;;;33.37;;
5890;SDS011;2971;52.420;7.080;2022-12-18T00:11:19;88.83;;;35.30;;
5890;SDS011;2971;52.420;7.080;2022-12-18T00:13:47;81.27;;;33.30;;
5890;SDS011;2971;52.420;7.080;2022-12-18T00:16:14;77.87;;;32.90;;
5890;SDS011;2971;52.420;7.080;2022-12-18T00:18:42;79.13;;;33.90;;
5890;SDS011;2971;52.420;7.080;2022-12-18T00:21:08;81.07;;;35.17;;
5890;SDS011;2971;52.420;7.080;2022-12-18T00:23:35;78.57;;;31.07;;
5890;SDS011;2971;52.420;7.080;2022-12-18T00:26:05;82.40;;;32.83;;
5890;SDS011;2971;52.420;7.080;2022-12-18T00:28:32;90.80;;;34.73;;
5890;SDS011;2971;52.420;7.080;2022-12-18T00:31:01;84.20;;;32.90;;
5890;SDS011;2971;52.420;7.080;2022-12-18T00:33:31;79.90;;;34.20;;
5890;SDS011;2971;52.420;7.080;2022-12-18T00:36:00;77.93;;;32.83;;
5890;SDS011;2971;52.420;7.080;2022-12-18T00:38:26;83.93;;;35.33;;
5890;SDS011;2971;52.420;7.080;2022-12-18T00:40:52;77.57;;;33.33;;
5890;SDS011;2971;52.420;7.080;2022-12-18T00:43:17;73.20;;;32.33;;
5890;SDS011;2971;52.420;7.080;2022-12-18T00:45:43;71.87;;;30.27;;
5890;SDS011;2971;52.420;7.080;2022-12-18T00:48:08;79.43;;;32.93;;
5890;SDS011;2971;52.420;7.080;2022-12-18T00:50:33;76.53;;;31.93;;
5890;SDS011;2971;52.420;7.080;2022-12-18T00:52:59;69.13;;;31.57;;
5890;SDS011;2971;52.420;7.080;2022-12-18T00:55:24;70.90;;;30.73;;
5890;SDS011;2971;52.420;7.080;2022-12-18T00:57:50;72.07;;;30.83;;
5890;SDS011;2971;52.420;7.080;2022-12-18T01:00:17;77.73;;;33.70;;
5890;SDS011;2971;52.420;7.080;2022-12-18T01:02:43;80.07;;;33.07;;
5890;SDS011;2971;52.420;7.080;2022-12-18T01:05:09;78.20;;;31.10;;
5890;SDS011;2971;52.420;7.080;2022-12-18T01:07:36;72.93;;;30.90;;
5890;SDS011;2971;52.420;7.080;2022-12-18T01:10:02;73.33;;;32.07;;
5890;SDS011;2971;52.420;7.080;2022-12-18T01:12:28;65.83;;;30.00;;
5890;SDS011;2971;52.420;7.080;2022-12-18T01:14:53;69.33;;;30.73;;
5890;SDS011;2971;52.420;7.080;2022-12-18T01:17:18;72.03;;;32.40;;
5890;SDS011;2971;52.420;7.080;2022-12-18T01:19:44;75.27;;;30.10;;
5890;SDS011;2971;52.420;7.080;2022-12-18T01:22:09;76.83;;;33.83;;
5890;SDS011;2971;52.420;7.080;2022-12-18T01:24:35;76.27;;;31.00;;
5890;SDS011;2971;52.420;7.080;2022-12-18T01:27:00;72.67;;;31.97;;
5890;SDS011;2971;52.420;7.080;2022-12-18T01:29:25;75.97;;;31.77;;
5890;SDS011;2971;52.420;7.080;2022-12-18T01:31:54;71.57;;;30.70;;
5890;SDS011;2971;52.420;7.080;2022-12-18T01:34:20;74.90;;;30.97;;
5890;SDS011;2971;52.420;7.080;2022-12-18T01:36:45;79.33;;;32.90;;
5890;SDS011;2971;52.420;7.080;2022-12-18T01:39:11;72.97;;;31.07;;
5890;SDS011;2971;52.420;7.080;2022-12-18T01:41:38;75.03;;;33.57;;
5890;SDS011;2971;52.420;7.080;2022-12-18T01:47:24;73.67;;;31.13;;
5890;SDS011;2971;52.420;7.080;2022-12-18T01:50:11;73.83;;;31.77;;
5890;SDS011;2971;52.420;7.080;2022-12-18T01:52:37;68.63;;;31.67;;
5890;SDS011;2971;52.420;7.080;2022-12-18T01:55:07;69.20;;;32.50;;
5890;SDS011;2971;52.420;7.080;2022-12-18T01:57:33;68.33;;;30.33;;
5890;SDS011;2971;52.420;7.080;2022-12-18T02:00:00;78.10;;;33.10;;
5890;SDS011;2971;52.420;7.080;2022-12-18T02:02:28;73.13;;;31.53;;
5890;SDS011;2971;52.420;7.080;2022-12-18T02:04:54;72.13;;;30.50;;
5890;SDS011;2971;52.420;7.080;2022-12-18T02:10:09;65.73;;;32.73;;
5890;SDS011;2971;52.420;7.080;2022-12-18T02:15:28;70.13;;;33.33;;
5890;SDS011;2971;52.420;7.080;2022-12-18T02:18:18;71.83;;;32.17;;
5890;SDS011;2971;52.420;7.080;2022-12-18T02:20:59;71.83;;;32.63;;
5890;SDS011;2971;52.420;7.080;2022-12-18T02:23:41;69.37;;;30.90;;
5890;SDS011;2971;52.420;7.080;2022-12-18T02:26:27;69.83;;;30.70;;
5890;SDS011;2971;52.420;7.080;2022-12-18T02:29:03;68.20;;;30.00;;
5890;SDS011;2971;52.420;7.080;2022-12-18T02:31:34;64.80;;;30.47;;
5890;SDS011;2971;52.420;7.080;2022-12-18T02:34:02;61.00;;;29.10;;
5890;SDS011;2971;52.420;7.080;2022-12-18T02:36:29;64.03;;;30.97;;
5890;SDS011;2971;52.420;7.080;2022-12-18T02:38:56;65.23;;;31.53;;
5890;SDS011;2971;52.420;7.080;2022-12-18T02:41:24;63.83;;;31.63;;
5890;SDS011;2971;52.420;7.080;2022-12-18T02:43:55;67.60;;;30.90;;
5890;SDS011;2971;52.420;7.080;2022-12-18T02:48:50;63.27;;;32.00;;
5890;SDS011;2971;52.420;7.080;2022-12-18T02:51:30;56.23;;;28.50;;
5890;SDS011;2971;52.420;7.080;2022-12-18T02:54:06;61.77;;;28.43;;
5890;SDS011;2971;52.420;7.080;2022-12-18T02:56:35;61.27;;;28.80;;
5890;SDS011;2971;52.420;7.080;2022-12-18T02:59:05;58.33;;;28.57;;
5890;SDS011;2971;52.420;7.080;2022-12-18T03:04:05;59.87;;;30.43;;
5890;SDS011;2971;52.420;7.080;2022-12-18T03:06:36;58.33;;;28.93;;
5890;SDS011;2971;52.420;7.080;2022-12-18T03:09:06;56.77;;;27.70;;
5890;SDS011;2971;52.420;7.080;2022-12-18T03:11:34;58.80;;;28.17;;
5890;SDS011;2971;52.420;7.080;2022-12-18T03:14:21;52.50;;;27.57;;
5890;SDS011;2971;52.420;7.080;2022-12-18T03:16:52;50.17;;;26.50;;
5890;SDS011;2971;52.420;7.080;2022-12-18T03:19:20;50.53;;;26.30;;
5890;SDS011;2971;52.420;7.080;2022-12-18T03:21:53;60.20;;;30.27;;
5890;SDS011;2971;52.420;7.080;2022-12-18T03:24:19;53.17;;;27.00;;
5890;SDS011;2971;52.420;7.080;2022-12-18T03:26:47;50.73;;;26.77;;
5890;SDS011;2971;52.420;7.080;2022-12-18T03:29:19;54.23;;;26.10;;
5890;SDS011;2971;52.420;7.080;2022-12-18T03:31:51;52.40;;;26.80;;
5890;SDS011;2971;52.420;7.080;2022-12-18T03:34:21;49.57;;;25.67;;
5890;SDS011;2971;52.420;7.080;2022-12-18T03:36:49;47.57;;;23.77;;
5890;SDS011;2971;52.420;7.080;2022-12-18T03:39:15;52.30;;;26.77;;
5890;SDS011;2971;52.420;7.080;2022-12-18T03:41:44;53.63;;;25.67;;
5890;SDS011;2971;52.420;7.080;2022-12-18T03:44:21;51.23;;;26.50;;
5890;SDS011;2971;52.420;7.080;2022-12-18T03:47:28;48.13;;;25.37;;
5890;SDS011;2971;52.420;7.080;2022-12-18T03:49:57;46.30;;;24.50;;
5890;SDS011;2971;52.420;7.080;2022-12-18T03:55:07;49.43;;;24.50;;
5890;SDS011;2971;52.420;7.080;2022-12-18T03:57:34;50.00;;;24.70;;
5890;SDS011;2971;52.420;7.080;2022-12-18T04:00:03;50.53;;;25.47;;
5890;SDS011;2971;52.420;7.080;2022-12-18T04:02:31;52.53;;;28.03;;
5890;SDS011;2971;52.420;7.080;2022-12-18T04:04:58;47.80;;;25.57;;
5890;SDS011;2971;52.420;7.080;2022-12-18T04:07:26;48.97;;;24.63;;
5890;SDS011;2971;52.420;7.080;2022-12-18T04:09:53;45.77;;;24.57;;
5890;SDS011;2971;52.420;7.080;2022-12-18T04:12:21;39.83;;;22.47;;
5890;SDS011;2971;52.420;7.080;2022-12-18T04:14:50;49.00;;;25.73;;
5890;SDS011;2971;52.420;7.080;2022-12-18T04:17:15;46.87;;;25.57;;
5890;SDS011;2971;52.420;7.080;2022-12-18T04:19:41;45.93;;;24.03;;
5890;SDS011;2971;52.420;7.080;2022-12-18T04:22:06;44.47;;;24.07;;
5890;SDS011;2971;52.420;7.080;2022-12-18T04:24:33;45.23;;;23.90;;
5890;SDS011;2971;52.420;7.080;2022-12-18T04:27:00;45.80;;;23.93;;
5890;SDS011;2971;52.420;7.080;2022-12-18T04:29:25;43.97;;;22.47;;
5890;SDS011;2971;52.420;7.080;2022-12-18T04:31:50;41.13;;;22.17;;
5890;SDS011;2971;52.420;7.080;2022-12-18T04:34:16;43.90;;;22.77;;
5890;SDS011;2971;52.420;7.080;2022-12-18T04:36:41;40.13;;;22.43;;
5890;SDS011;2971;52.420;7.080;2022-12-18T04:39:06;44.10;;;22.53;;
5890;SDS011;2971;52.420;7.080;2022-12-18T04:41:32;42.43;;;21.30;;
5890;SDS011;2971;52.420;7.080;2022-12-18T04:43:57;40.57;;;22.17;;
5890;SDS011;2971;52.420;7.080;2022-12-18T04:46:23;43.50;;;22.60;;
5890;SDS011;2971;52.420;7.080;2022-12-18T04:48:48;38.80;;;21.13;;
5890;SDS011;2971;52.420;7.080;2022-12-18T04:51:13;46.03;;;22.40;;
5890;SDS011;2971;52.420;7.080;2022-12-18T04:53:42;40.97;;;21.57;;
5890;SDS011;2971;52.420;7.080;2022-12-18T04:56:12;42.83;;;22.43;;
5890;SDS011;2971;52.420;7.080;2022-12-18T04:58:39;39.60;;;20.93;;
5890;SDS011;2971;52.420;7.080;2022-12-18T05:01:05;42.73;;;21.67;;
5890;SDS011;2971;52.420;7.080;2022-12-18T05:03:32;41.87;;;22.07;;
5890;SDS011;2971;52.420;7.080;2022-12-18T05:05:57;40.33;;;21.53;;
5890;SDS011;2971;52.420;7.080;2022-12-18T05:08:23;42.10;;;21.40;;
5890;SDS011;2971;52.420;7.080;2022-12-18T05:10:48;42.13;;;21.17;;
5890;SDS011;2971;52.420;7.080;2022-12-18T05:13:14;39.47;;;21.13;;
5890;SDS011;2971;52.420;7.080;2022-12-18T05:15:39;47.63;;;22.80;;
5890;SDS011;2971;52.420;7.080;2022-12-18T05:18:05;41.30;;;20.30;;
5890;SDS011;2971;52.420;7.080;2022-12-18T05:20:30;40.80;;;22.40;;
5890;SDS011;2971;52.420;7.080;2022-12-18T05:22:58;39.57;;;21.73;;
5890;SDS011;2971;52.420;7.080;2022-12-18T05:25:24;43.47;;;21.17;;
5890;SDS011;2971;52.420;7.080;2022-12-18T05:27:49;41.73;;;21.63;;
5890;SDS011;2971;52.420;7.080;2022-12-18T05:30:15;37.83;;;21.07;;
5890;SDS011;2971;52.420;7.080;2022-12-18T05:32:41;41.43;;;20.87;;
5890;SDS011;2971;52.420;7.080;2022-12-18T05:35:07;38.37;;;20.27;;
5890;SDS011;2971;52.420;7.080;2022-12-18T05:37:33;41.03;;;20.70;;
5890;SDS011;2971;52.420;7.080;2022-12-18T05:39:59;40.13;;;19.80;;
5890;SDS011;2971;52.420;7.080;2022-12-18T05:42:24;45.43;;;20.67;;
5890;SDS011;2971;52.420;7.080;2022-12-18T05:44:49;42.37;;;20.73;;
5890;SDS011;2971;52.420;7.080;2022-12-18T05:47:15;40.23;;;19.37;;
5890;SDS011;2971;52.420;7.080;2022-12-18T05:49:40;36.87;;;19.97;;
5890;SDS011;2971;52.420;7.080;2022-12-18T05:52:06;36.80;;;20.33;;
5890;SDS011;2971;52.420;7.080;2022-12-18T05:54:31;39.87;;;20.80;;
5890;SDS011;2971;52.420;7.080;2022-12-18T05:56:57;38.47;;;20.70;;
5890;SDS011;2971;52.420;7.080;2022-12-18T05:59:22;37.30;;;21.27;;
5890;SDS011;2971;52.420;7.080;2022-12-18T06:01:48;35.23;;;20.17;;
5890;SDS011;2971;52.420;7.080;2022-12-18T06:04:13;36.50;;;20.40;;
5890;SDS011;2971;52.420;7.080;2022-12-18T06:06:39;39.40;;;21.50;;
5890;SDS011;2971;52.420;7.080;2022-12-18T06:09:04;34.80;;;19.20;;
5890;SDS011;2971;52.420;7.080;2022-12-18T06:11:35;38.63;;;21.27;;
5890;SDS011;2971;52.420;7.080;2022-12-18T06:14:01;35.70;;;19.33;;
5890;SDS011;2971;52.420;7.080;2022-12-18T06:16:27;35.90;;;18.47;;
5890;SDS011;2971;52.420;7.080;2022-12-18T06:18:53;37.53;;;20.83;;
5890;SDS011;2971;52.420;7.080;2022-12-18T06:21:21;37.20;;;20.30;;
5890;SDS011;2971;52.420;7.080;2022-12-18T06:23:46;35.63;;;20.80;;
5890;SDS011;2971;52.420;7.080;2022-12-18T06:26:12;38.17;;;20.27;;
5890;SDS011;2971;52.420;7.080;2022-12-18T06:28:38;35.97;;;19.43;;
5890;SDS011;2971;52.420;7.080;2022-12-18T06:31:03;34.73;;;20.00;;
5890;SDS011;2971;52.420;7.080;2022-12-18T06:33:29;36.13;;;19.60;;
5890;SDS011;2971;52.420;7.080;2022-12-18T06:35:59;33.63;;;18.73;;
5890;SDS011;2971;52.420;7.080;2022-12-18T06:38:26;33.33;;;18.20;;
5890;SDS011;2971;52.420;7.080;2022-12-18T06:40:52;31.57;;;18.00;;
5890;SDS011;2971;52.420;7.080;2022-12-18T06:43:17;31.73;;;18.10;;
5890;SDS011;2971;52.420;7.080;2022-12-18T06:45:42;35.37;;;19.17;;
5890;SDS011;2971;52.420;7.080;2022-12-18T06:48:08;32.27;;;18.87;;
5890;SDS011;2971;52.420;7.080;2022-12-18T06:50:33;34.10;;;17.93;;
5890;SDS011;2971;52.420;7.080;2022-12-18T06:52:59;34.20;;;18.23;;
5890;SDS011;2971;52.420;7.080;2022-12-18T06:55:24;35.33;;;18.53;;
5890;SDS011;2971;52.420;7.080;2022-12-18T06:57:50;39.73;;;19.13;;
5890;SDS011;2971;52.420;7.080;2022-12-18T07:00:15;31.60;;;18.00;;
5890;SDS011;2971;52.420;7.080;2022-12-18T07:02:41;31.33;;;18.00;;
5890;SDS011;2971;52.420;7.080;2022-12-18T07:05:07;39.43;;;18.97;;
5890;SDS011;2971;52.420;7.080;2022-12-18T07:07:33;36.27;;;18.27;;
5890;SDS011;2971;52.420;7.080;2022-12-18T07:09:59;32.77;;;18.57;;
5890;SDS011;2971;52.420;7.080;2022-12-18T07:12:26;30.43;;;17.27;;
5890;SDS011;2971;52.420;7.080;2022-12-18T07:14:51;35.70;;;18.13;;
5890;SDS011;2971;52.420;7.080;2022-12-18T07:17:17;30.33;;;17.53;;
5890;SDS011;2971;52.420;7.080;2022-12-18T07:19:42;32.80;;;18.57;;
5890;SDS011;2971;52.420;7.080;2022-12-18T07:22:08;30.87;;;17.90;;
5890;SDS011;2971;52.420;7.080;2022-12-18T07:24:33;35.10;;;18.40;;
5890;SDS011;2971;52.420;7.080;2022-12-18T07:26:59;29.43;;;16.43;;
5890;SDS011;2971;52.420;7.080;2022-12-18T07:29:24;31.73;;;17.33;;
5890;SDS011;2971;52.420;7.080;2022-12-18T07:31:50;36.63;;;19.43;;
5890;SDS011;2971;52.420;7.080;2022-12-18T07:34:16;37.37;;;19.90;;
5890;SDS011;2971;52.420;7.080;2022-12-18T07:36:42;38.23;;;20.30;;
5890;SDS011;2971;52.420;7.080;2022-12-18T07:39:07;30.90;;;17.50;;
5890;SDS011;2971;52.420;7.080;2022-12-18T07:41:33;31.17;;;17.27;;
5890;SDS011;2971;52.420;7.080;2022-12-18T07:43:58;30.93;;;16.77;;
5890;SDS011;2971;52.420;7.080;2022-12-18T07:46:24;28.37;;;16.20;;
5890;SDS011;2971;52.420;7.080;2022-12-18T07:48:49;26.30;;;15.87;;
5890;SDS011;2971;52.420;7.080;2022-12-18T07:51:15;28.37;;;16.23;;
5890;SDS011;2971;52.420;7.080;2022-12-18T07:53:41;29.27;;;16.27;;
5890;SDS011;2971;52.420;7.080;2022-12-18T07:56:07;27.30;;;15.87;;
5890;SDS011;2971;52.420;7.080;2022-12-18T07:58:34;27.90;;;16.13;;
5890;SDS011;2971;52.420;7.080;2022-12-18T08:01:09;27.90;;;14.67;;
5890;SDS011;2971;52.420;7.080;2022-12-18T08:03:35;25.23;;;15.20;;
5890;SDS011;2971;52.420;7.080;2022-12-18T08:06:03;26.60;;;15.97;;
5890;SDS011;2971;52.420;7.080;2022-12-18T08:08:30;25.03;;;15.30;;
5890;SDS011;2971;52.420;7.080;2022-12-18T08:10:55;30.00;;;14.30;;
5890;SDS011;2971;52.420;7.080;2022-12-18T08:13:22;30.40;;;16.40;;
5890;SDS011;2971;52.420;7.080;2022-12-18T08:15:55;32.30;;;17.17;;
5890;SDS011;2971;52.420;7.080;2022-12-18T08:18:21;34.50;;;17.70;;
5890;SDS011;2971;52.420;7.080;2022-12-18T08:20:47;38.40;;;19.13;;
5890;SDS011;2971;52.420;7.080;2022-12-18T08:23:12;33.37;;;18.60;;
5890;SDS011;2971;52.420;7.080;2022-12-18T08:25:38;31.33;;;17.30;;
5890;SDS011;2971;52.420;7.080;2022-12-18T08:28:03;33.30;;;18.27;;
5890;SDS011;2971;52.420;7.080;2022-12-18T08:30:28;30.27;;;17.07;;
5890;SDS011;2971;52.420;7.080;2022-12-18T08:32:54;31.77;;;18.00;;
5890;SDS011;2971;52.420;7.080;2022-12-18T08:35:19;26.53;;;15.20;;
5890;SDS011;2971;52.420;7.080;2022-12-18T08:37:45;27.83;;;15.27;;
5890;SDS011;2971;52.420;7.080;2022-12-18T08:40:10;21.50;;;14.07;;
5890;SDS011;2971;52.420;7.080;2022-12-18T08:42:36;21.47;;;14.00;;
5890;SDS011;2971;52.420;7.080;2022-12-18T08:45:19;20.83;;;12.73;;
5890;SDS011;2971;52.420;7.080;2022-12-18T08:47:45;22.23;;;13.43;;
5890;SDS011;2971;52.420;7.080;2022-12-18T08:50:10;21.37;;;12.90;;
5890;SDS011;2971;52.420;7.080;2022-12-18T08:52:37;17.83;;;12.63;;
5890;SDS011;2971;52.420;7.080;2022-12-18T08:55:02;16.40;;;10.70;;
5890;SDS011;2971;52.420;7.080;2022-12-18T08:57:28;17.47;;;10.77;;
5890;SDS011;2971;52.420;7.080;2022-12-18T08:59:53;19.77;;;11.00;;
5890;SDS011;2971;52.420;7.080;2022-12-18T09:02:19;17.37;;;11.00;;
5890;SDS011;2971;52.420;7.080;2022-12-18T09:04:46;18.33;;;11.23;;
5890;SDS011;2971;52.420;7.080;2022-12-18T09:07:12;18.53;;;11.20;;
5890;SDS011;2971;52.420;7.080;2022-12-18T09:09:37;17.30;;;11.37;;
5890;SDS011;2971;52.420;7.080;2022-12-18T09:12:03;22.43;;;11.43;;
5890;SDS011;2971;52.420;7.080;2022-12-18T09:14:28;23.63;;;12.93;;
5890;SDS011;2971;52.420;7.080;2022-12-18T09:16:54;26.13;;;13.70;;
5890;SDS011;2971;52.420;7.080;2022-12-18T09:19:19;21.53;;;12.57;;
5890;SDS011;2971;52.420;7.080;2022-12-18T09:21:45;24.53;;;13.53;;
5890;SDS011;2971;52.420;7.080;2022-12-18T09:24:13;17.60;;;10.83;;
5890;SDS011;2971;52.420;7.080;2022-12-18T09:26:39;16.50;;;10.50;;
5890;SDS011;2971;52.420;7.080;2022-12-18T09:29:05;18.93;;;9.27;;
5890;SDS011;2971;52.420;7.080;2022-12-18T09:31:32;15.53;;;9.70;;
5890;SDS011;2971;52.420;7.080;2022-12-18T09:33:58;13.87;;;8.70;;
5890;SDS011;2971;52.420;7.080;2022-12-18T09:36:23;12.93;;;8.97;;
5890;SDS011;2971;52.420;7.080;2022-12-18T09:38:48;12.47;;;8.87;;
5890;SDS011;2971;52.420;7.080;2022-12-18T09:46:54;14.10;;;8.90;;
5890;SDS011;2971;52.420;7.080;2022-12-18T09:49:21;12.17;;;8.80;;
5890;SDS011;2971;52.420;7.080;2022-12-18T09:51:56;13.27;;;8.63;;
5890;SDS011;2971;52.420;7.080;2022-12-18T09:54:26;12.43;;;8.03;;
5890;SDS011;2971;52.420;7.080;2022-12-18T09:56:58;12.20;;;8.73;;
5890;SDS011;2971;52.420;7.080;2022-12-18T09:59:25;14.20;;;8.83;;
5890;SDS011;2971;52.420;7.080;2022-12-18T10:01:52;13.00;;;8.17;;
5890;SDS011;2971;52.420;7.080;2022-12-18T10:04:17;10.93;;;7.63;;
5890;SDS011;2971;52.420;7.080;2022-12-18T10:07:01;10.73;;;7.70;;
5890;SDS011;2971;52.420;7.080;2022-12-18T10:12:05;10.40;;;7.90;;
5890;SDS011;2971;52.420;7.080;2022-12-18T10:19:59;10.57;;;8.13;;
5890;SDS011;2971;52.420;7.080;2022-12-18T10:25:17;11.43;;;8.13;;
5890;SDS011;2971;52.420;7.080;2022-12-18T10:27:44;10.73;;;7.77;;
5890;SDS011;2971;52.420;7.080;2022-12-18T10:30:14;9.50;;;7.07;;
5890;SDS011;2971;52.420;7.080;2022-12-18T10:32:40;11.93;;;7.30;;
5890;SDS011;2971;52.420;7.080;2022-12-18T10:38:02;10.60;;;7.53;;
5890;SDS011;2971;52.420;7.080;2022-12-18T10:43:15;13.37;;;9.67;;
5890;SDS011;2971;52.420;7.080;2022-12-18T10:45:44;14.57;;;10.87;;
5890;SDS011;2971;52.420;7.080;2022-12-18T10:48:35;11.90;;;8.17;;
5890;SDS011;2971;52.420;7.080;2022-12-18T10:51:01;10.07;;;8.03;;
5890;SDS011;2971;52.420;7.080;2022-12-18T10:53:28;12.67;;;8.37;;
5890;SDS011;2971;52.420;7.080;2022-12-18T10:55:56;10.47;;;8.33;;
5890;SDS011;2971;52.420;7.080;2022-12-18T11:01:16;10.47;;;7.50;;
5890;SDS011;2971;52.420;7.080;2022-12-18T11:06:15;12.07;;;7.93;;
5890;SDS011;2971;52.420;7.080;2022-12-18T11:08:43;9.77;;;8.17;;
5890;SDS011;2971;52.420;7.080;2022-12-18T11:11:29;12.10;;;9.50;;
5890;SDS011;2971;52.420;7.080;2022-12-18T11:13:59;13.07;;;9.90;;
5890;SDS011;2971;52.420;7.080;2022-12-18T11:16:26;14.77;;;10.57;;
5890;SDS011;2971;52.420;7.080;2022-12-18T11:18:52;11.60;;;9.10;;
5890;SDS011;2971;52.420;7.080;2022-12-18T11:21:17;11.83;;;8.30;;
5890;SDS011;2971;52.420;7.080;2022-12-18T11:23:52;11.43;;;8.23;;
5890;SDS011;2971;52.420;7.080;2022-12-18T11:26:18;10.47;;;8.33;;
5890;SDS011;2971;52.420;7.080;2022-12-18T11:28:46;10.97;;;7.97;;
5890;SDS011;2971;52.420;7.080;2022-12-18T11:36:45;11.57;;;8.33;;
5890;SDS011;2971;52.420;7.080;2022-12-18T11:39:22;11.70;;;8.77;;
5890;SDS011;2971;52.420;7.080;2022-12-18T11:41:54;10.63;;;7.83;;
5890;SDS011;2971;52.420;7.080;2022-12-18T11:44:57;12.83;;;7.83;;
5890;SDS011;2971;52.420;7.080;2022-12-18T11:47:45;11.07;;;7.73;;
5890;SDS011;2971;52.420;7.080;2022-12-18T11:50:19;11.50;;;8.23;;
5890;SDS011;2971;52.420;7.080;2022-12-18T11:52:47;10.40;;;7.93;;
5890;SDS011;2971;52.420;7.080;2022-12-18T11:55:13;10.10;;;7.93;;
5890;SDS011;2971;52.420;7.080;2022-12-18T11:58:03;11.60;;;8.43;;
5890;SDS011;2971;52.420;7.080;2022-12-18T12:00:36;9.37;;;7.37;;
5890;SDS011;2971;52.420;7.080;2022-12-18T12:24:37;10.30;;;8.10;;
5890;SDS011;2971;52.420;7.080;2022-12-18T12:40:35;10.20;;;8.07;;
5890;SDS011;2971;52.420;7.080;2022-12-18T12:43:10;9.47;;;8.00;;
5890;SDS011;2971;52.420;7.080;2022-12-18T12:45:57;9.30;;;7.33;;
5890;SDS011;2971;52.420;7.080;2022-12-18T12:48:35;9.13;;;7.63;;
5890;SDS011;2971;52.420;7.080;2022-12-18T12:51:16;10.60;;;7.87;;
5890;SDS011;2971;52.420;7.080;2022-12-18T12:53:43;11.60;;;8.27;;
5890;SDS011;2971;52.420;7.080;2022-12-18T12:56:11;12.40;;;8.50;;
5890;SDS011;2971;52.420;7.080;2022-12-18T12:58:46;11.13;;;9.43;;
5890;SDS011;2971;52.420;7.080;2022-12-18T13:04:46;12.67;;;9.47;;
5890;SDS011;2971;52.420;7.080;2022-12-18T13:12:53;11.57;;;9.33;;
5890;SDS011;2971;52.420;7.080;2022-12-18T13:15:32;10.63;;;9.47;;
5890;SDS011;2971;52.420;7.080;2022-12-18T13:18:06;12.50;;;9.50;;
5890;SDS011;2971;52.420;7.080;2022-12-18T13:20:40;11.90;;;9.23;;
5890;SDS011;2971;52.420;7.080;2022-12-18T13:25:51;11.83;;;9.23;;
5890;SDS011;2971;52.420;7.080;2022-12-18T13:28:21;11.43;;;9.03;;
5890;SDS011;2971;52.420;7.080;2022-12-18T13:30:55;11.43;;;8.70;;
5890;SDS011;2971;52.420;7.080;2022-12-18T13:38:22;11.97;;;9.13;;
5890;SDS011;2971;52.420;7.080;2022-12-18T13:43:15;12.17;;;9.17;;
5890;SDS011;2971;52.420;7.080;2022-12-18T13:45:49;12.77;;;9.77;;
5890;SDS011;2971;52.420;7.080;2022-12-18T13:48:25;13.37;;;9.87;;
5890;SDS011;2971;52.420;7.080;2022-12-18T13:53:24;12.23;;;9.60;;
5890;SDS011;2971;52.420;7.080;2022-12-18T13:55:52;11.43;;;8.67;;
5890;SDS011;2971;52.420;7.080;2022-12-18T13:58:18;11.30;;;9.10;;
5890;SDS011;2971;52.420;7.080;2022-12-18T14:00:43;12.00;;;9.90;;
5890;SDS011;2971;52.420;7.080;2022-12-18T14:06:07;11.93;;;9.73;;
5890;SDS011;2971;52.420;7.080;2022-12-18T14:08:36;14.63;;;10.10;;
5890;SDS011;2971;52.420;7.080;2022-12-18T14:11:04;13.13;;;9.93;;
5890;SDS011;2971;52.420;7.080;2022-12-18T14:13:38;11.27;;;9.63;;
5890;SDS011;2971;52.420;7.080;2022-12-18T14:16:06;12.03;;;9.73;;
5890;SDS011;2971;52.420;7.080;2022-12-18T14:18:42;12.33;;;9.70;;
5890;SDS011;2971;52.420;7.080;2022-12-18T14:21:28;10.97;;;9.17;;
5890;SDS011;2971;52.420;7.080;2022-12-18T14:26:40;12.30;;;9.10;;
5890;SDS011;2971;52.420;7.080;2022-12-18T14:32:13;11.37;;;9.67;;
5890;SDS011;2971;52.420;7.080;2022-12-18T14:37:20;12.70;;;9.70;;
5890;SDS011;2971;52.420;7.080;2022-12-18T14:39:57;12.70;;;9.50;;
5890;SDS011;2971;52.420;7.080;2022-12-18T14:42:29;14.10;;;10.57;;
5890;SDS011;2971;52.420;7.080;2022-12-18T14:48:00;14.33;;;9.53;;
5890;SDS011;2971;52.420;7.080;2022-12-18T14:50:32;13.73;;;9.13;;
5890;SDS011;2971;52.420;7.080;2022-12-18T14:52:58;14.90;;;9.73;;
5890;SDS011;2971;52.420;7.080;2022-12-18T14:55:23;12.93;;;9.20;;
5890;SDS011;2971;52.420;7.080;2022-12-18T14:57:50;14.50;;;10.20;;
5890;SDS011;2971;52.420;7.080;2022-12-18T15:00:20;12.73;;;9.80;;
5890;SDS011;2971;52.420;7.080;2022-12-18T15:02:57;11.20;;;9.07;;
5890;SDS011;2971;52.420;7.080;2022-12-18T15:05:27;11.73;;;9.43;;
5890;SDS011;2971;52.420;7.080;2022-12-18T15:07:54;12.13;;;9.40;;
5890;SDS011;2971;52.420;7.080;2022-12-18T15:10:22;12.63;;;9.07;;
5890;SDS011;2971;52.420;7.080;2022-12-18T15:23:36;13.10;;;10.33;;
5890;SDS011;2971;52.420;7.080;2022-12-18T15:26:13;13.00;;;10.00;;
5890;SDS011;2971;52.420;7.080;2022-12-18T15:28:46;13.63;;;10.43;;
5890;SDS011;2971;52.420;7.080;2022-12-18T15:36:16;15.90;;;11.13;;
5890;SDS011;2971;52.420;7.080;2022-12-18T15:38:45;13.20;;;10.53;;
5890;SDS011;2971;52.420;7.080;2022-12-18T15:41:15;15.37;;;11.27;;
5890;SDS011;2971;52.420;7.080;2022-12-18T15:43:45;16.07;;;12.23;;
5890;SDS011;2971;52.420;7.080;2022-12-18T15:46:12;15.90;;;12.13;;
5890;SDS011;2971;52.420;7.080;2022-12-18T15:48:39;18.23;;;13.20;;
5890;SDS011;2971;52.420;7.080;2022-12-18T15:51:09;17.23;;;13.80;;
5890;SDS011;2971;52.420;7.080;2022-12-18T15:53:37;17.17;;;13.07;;
5890;SDS011;2971;52.420;7.080;2022-12-18T15:56:04;18.03;;;13.93;;
5890;SDS011;2971;52.420;7.080;2022-12-18T15:58:48;18.37;;;13.63;;
5890;SDS011;2971;52.420;7.080;2022-12-18T16:01:13;17.37;;;13.47;;
5890;SDS011;2971;52.420;7.080;2022-12-18T16:03:40;16.90;;;13.70;;
5890;SDS011;2971;52.420;7.080;2022-12-18T16:06:05;16.23;;;13.07;;
5890;SDS011;2971;52.420;7.080;2022-12-18T16:08:31;16.97;;;13.10;;
5890;SDS011;2971;52.420;7.080;2022-12-18T16:10:56;15.97;;;13.17;;
5890;SDS011;2971;52.420;7.080;2022-12-18T16:13:23;16.07;;;13.47;;
5890;SDS011;2971;52.420;7.080;2022-12-18T16:15:48;17.30;;;14.10;;
5890;SDS011;2971;52.420;7.080;2022-12-18T16:18:14;19.17;;;15.10;;
5890;SDS011;2971;52.420;7.080;2022-12-18T16:20:39;16.47;;;13.77;;
5890;SDS011;2971;52.420;7.080;2022-12-18T16:23:05;18.60;;;14.40;;
5890;SDS011;2971;52.420;7.080;2022-12-18T16:25:31;18.03;;;13.43;;
5890;SDS011;2971;52.420;7.080;2022-12-18T16:27:56;18.10;;;13.53;;
5890;SDS011;2971;52.420;7.080;2022-12-18T16:30:23;23.53;;;17.03;;
5890;SDS011;2971;52.420;7.080;2022-12-18T16:32:52;23.50;;;16.23;;
5890;SDS011;2971;52.420;7.080;2022-12-18T16:35:18;29.97;;;17.90;;
5890;SDS011;2971;52.420;7.080;2022-12-18T16:37:43;24.57;;;16.40;;
5890;SDS011;2971;52.420;7.080;2022-12-18T16:40:10;46.83;;;24.07;;
5890;SDS011;2971;52.420;7.080;2022-12-18T16:42:37;42.20;;;22.37;;
5890;SDS011;2971;52.420;7.080;2022-12-18T16:45:03;37.87;;;22.67;;
5890;SDS011;2971;52.420;7.080;2022-12-18T16:47:29;39.43;;;22.80;;
5890;SDS011;2971;52.420;7.080;2022-12-18T16:49:55;26.70;;;17.13;;
5890;SDS011;2971;52.420;7.080;2022-12-18T16:52:20;19.37;;;13.90;;
5890;SDS011;2971;52.420;7.080;2022-12-18T16:54:46;15.97;;;12.20;;
5890;SDS011;2971;52.420;7.080;2022-12-18T16:57:12;11.40;;;9.17;;
5890;SDS011;2971;52.420;7.080;2022-12-18T16:59:38;10.73;;;8.53;;
5890;SDS011;2971;52.420;7.080;2022-12-18T17:02:03;12.27;;;8.83;;
5890;SDS011;2971;52.420;7.080;2022-12-18T17:04:29;13.80;;;9.37;;
5890;SDS011;2971;52.420;7.080;2022-12-18T17:06:54;11.07;;;8.53;;
5890;SDS011;2971;52.420;7.080;2022-12-18T17:09:20;11.03;;;8.80;;
5890;SDS011;2971;52.420;7.080;2022-12-18T17:11:49;11.33;;;8.30;;
5890;SDS011;2971;52.420;7.080;2022-12-18T17:14:16;11.37;;;9.07;;